Cloverdale, Michigan
Current Conditions -  °F | °C
As of 6:53 PM on Saturday 25 Oct 2014 (Local Time) from KBTL Reporting Station
Clear Clear  
Wind Chill: 61°   Ceiling: Unl
Heat Index: 61°   Visibility: 10mi
Dew Point: 31°   Wind: 15mph
Humidity: 32%   Direction: 290°WNW
Pressure: 29.84"   Gusts: 25mph
Location:  42.56°N, 85.43°W
Report Text: KBTL 252253Z 29013G22KT 10SM CLR 16/M01 A2984 RMK AO2 PK WND 28028/2155 SLP104 T01611006
Loading
Personal Weather Stations






























Interactive Weather Map
Tropical Storm Tracking
New forecast layout! Learn more

10-Day Weather Forecast

Advertisements
Track Severe Weather on mobile